createdAt,value
2017-05-01T00:02:25.895Z,6.92
2017-05-01T00:04:55.830Z,7.00
2017-05-01T00:07:25.735Z,6.68
2017-05-01T00:09:55.653Z,8.40
2017-05-01T00:12:25.833Z,7.50
2017-05-01T00:14:55.002Z,8.12
2017-05-01T00:17:24.172Z,7.40
2017-05-01T00:19:52.650Z,7.74
2017-05-01T00:22:22.554Z,8.24
2017-05-01T00:24:51.732Z,8.34
2017-05-01T00:27:20.925Z,7.90
2017-05-01T00:29:50.129Z,8.04
2017-05-01T00:32:19.282Z,6.96
2017-05-01T00:34:48.489Z,7.38
2017-05-01T00:37:17.664Z,6.38
2017-05-01T00:39:47.620Z,7.66
2017-05-01T00:42:16.822Z,7.20
2017-05-01T00:44:45.989Z,7.06
2017-05-01T00:47:15.163Z,7.98
2017-05-01T00:49:44.370Z,8.98
2017-05-01T00:52:14.274Z,7.52
2017-05-01T00:54:43.462Z,8.50
2017-05-01T00:57:12.670Z,8.56
2017-05-01T00:59:41.851Z,8.46
2017-05-01T01:02:11.032Z,8.70
2017-05-01T01:04:40.219Z,8.58
2017-05-01T01:07:09.390Z,9.92
2017-05-01T01:09:44.676Z,8.56
2017-05-01T01:12:13.840Z,9.14
2017-05-01T01:14:43.008Z,7.58
2017-05-01T01:17:12.189Z,8.28
2017-05-01T01:19:41.362Z,8.62
2017-05-01T01:22:10.180Z,8.18
2017-05-01T01:24:38.693Z,8.76
2017-05-01T01:27:08.603Z,8.80
2017-05-01T01:29:38.197Z,8.58
2017-05-01T01:32:06.673Z,8.54
2017-05-01T01:34:35.150Z,9.90
2017-05-01T01:37:03.650Z,10.48
2017-05-01T01:39:32.126Z,9.70
2017-05-01T01:42:00.825Z,9.90
2017-05-01T01:44:30.425Z,9.60
2017-05-01T01:46:58.890Z,7.78
2017-05-01T01:49:27.375Z,11.20
2017-05-01T01:51:55.869Z,9.16
2017-05-01T01:54:24.342Z,11.62
2017-05-01T01:56:52.809Z,9.52
2017-05-01T01:59:21.374Z,10.36
2017-05-01T02:01:49.845Z,10.80
2017-05-01T02:04:18.322Z,10.50
2017-05-01T02:06:46.837Z,10.64
2017-05-01T02:09:15.661Z,11.04
2017-05-01T02:11:44.490Z,10.02
2017-05-01T02:14:12.992Z,10.74
2017-05-01T02:16:41.470Z,8.50
2017-05-01T02:19:09.959Z,10.12
2017-05-01T02:21:38.470Z,11.78
2017-05-01T02:24:06.954Z,11.04
2017-05-01T02:26:35.437Z,10.94
2017-05-01T02:29:03.980Z,10.48
2017-05-01T02:31:32.457Z,10.92
2017-05-01T02:34:00.924Z,11.94
2017-05-01T02:36:29.417Z,9.18
2017-05-01T02:38:57.899Z,11.20
2017-05-01T02:41:26.373Z,11.72
2017-05-01T02:43:54.866Z,12.64
2017-05-01T02:46:23.357Z,44.02
2017-05-01T02:48:51.830Z,11.92
2017-05-01T02:51:20.333Z,12.32
2017-05-01T02:53:48.806Z,12.18
2017-05-01T02:56:17.323Z,12.80
2017-05-01T02:58:45.820Z,10.98
2017-05-01T03:01:14.297Z,10.84
2017-05-01T03:03:42.774Z,10.90
2017-05-01T03:06:11.269Z,11.24
2017-05-01T03:08:40.490Z,13.96
2017-05-01T03:11:08.964Z,11.86
2017-05-01T03:13:37.690Z,13.18
2017-05-01T03:16:06.171Z,11.18
2017-05-01T03:18:34.659Z,12.08
2017-05-01T03:21:03.851Z,12.38
2017-05-01T03:23:33.026Z,12.94
2017-05-01T03:26:01.842Z,11.30
2017-05-01T03:28:30.692Z,12.48
2017-05-01T03:30:59.909Z,13.68
2017-05-01T03:33:30.392Z,13.26
2017-05-01T03:35:59.241Z,14.44
2017-05-01T03:38:28.414Z,11.14
2017-05-01T03:40:58.337Z,11.34
2017-05-01T03:43:27.550Z,13.64
2017-05-01T03:45:56.378Z,12.88
2017-05-01T03:48:25.545Z,11.58
2017-05-01T03:50:54.745Z,9.16
2017-05-01T03:53:23.911Z,12.72
2017-05-01T03:55:53.850Z,14.16
2017-05-01T03:58:23.026Z,12.70
2017-05-01T04:00:52.948Z,13.70
2017-05-01T04:03:22.895Z,13.46
2017-05-01T04:05:52.070Z,14.54
2017-05-01T04:08:21.249Z,11.20
2017-05-01T04:10:51.193Z,14.38
2017-05-01T04:13:20.369Z,11.60
2017-05-01T04:15:49.552Z,13.32
2017-05-01T04:18:18.752Z,13.56
2017-05-01T04:20:47.925Z,12.70
2017-05-01T04:23:17.102Z,12.92
2017-05-01T04:25:46.301Z,12.78
2017-05-01T04:28:15.472Z,12.96
2017-05-01T04:30:44.449Z,11.32
2017-05-01T04:33:14.384Z,12.26
2017-05-01T04:35:43.561Z,11.22
2017-05-01T04:38:13.493Z,11.98
2017-05-01T04:40:42.713Z,13.16
2017-05-01T04:43:11.894Z,12.62
2017-05-01T04:45:41.677Z,13.40
2017-05-01T04:48:10.888Z,12.66
2017-05-01T04:50:40.811Z,12.58
2017-05-01T04:53:10.735Z,12.56
2017-05-01T04:55:40.049Z,13.08
2017-05-01T04:58:09.217Z,12.26
2017-05-01T05:00:39.141Z,12.76
2017-05-01T05:03:09.081Z,11.78
2017-05-01T05:05:38.246Z,13.34
2017-05-01T05:08:08.166Z,13.32
2017-05-01T05:10:37.364Z,12.72
2017-05-01T05:13:07.283Z,11.68
2017-05-01T05:15:37.396Z,12.64
2017-05-01T05:18:06.581Z,13.52
2017-05-01T05:20:35.771Z,11.88
2017-05-01T05:23:04.976Z,11.60
2017-05-01T05:25:34.145Z,13.98
2017-05-01T05:28:03.313Z,12.42
2017-05-01T05:30:32.517Z,11.36
2017-05-01T05:33:01.694Z,14.94
2017-05-01T05:35:31.626Z,11.84
2017-05-01T05:38:00.821Z,11.38
2017-05-01T05:40:29.993Z,13.02
2017-05-01T05:42:59.163Z,12.58
2017-05-01T05:45:28.370Z,12.86
2017-05-01T05:47:57.547Z,10.80
2017-05-01T05:50:26.709Z,13.32
2017-05-01T05:52:56.658Z,13.26
2017-05-01T05:55:25.826Z,12.04
2017-05-01T05:57:55.006Z,12.94
2017-05-01T06:00:24.219Z,13.78
2017-05-01T06:02:54.138Z,12.70
2017-05-01T06:05:23.327Z,11.96
2017-05-01T06:07:53.275Z,11.24
2017-05-01T06:10:23.133Z,12.46
2017-05-01T06:12:52.319Z,13.90
2017-05-01T06:15:21.521Z,12.40
2017-05-01T06:17:50.684Z,12.08
2017-05-01T06:20:19.863Z,14.26
2017-05-01T06:22:49.824Z,12.14
2017-05-01T06:25:19.001Z,14.16
2017-05-01T06:27:48.178Z,11.50
2017-05-01T06:30:18.129Z,14.64
2017-05-01T06:32:47.302Z,12.96
2017-05-01T06:35:16.473Z,12.28
2017-05-01T06:37:45.681Z,11.16
2017-05-01T06:40:15.628Z,13.78
2017-05-01T06:42:44.828Z,14.46
2017-05-01T06:45:14.001Z,13.40
2017-05-01T06:47:43.935Z,14.78
2017-05-01T06:50:13.150Z,13.80
2017-05-01T06:52:42.326Z,14.50
2017-05-01T06:55:11.500Z,14.84
2017-05-01T06:57:42.037Z,15.58
2017-05-01T07:00:11.608Z,14.26
2017-05-01T07:02:40.822Z,14.98
2017-05-01T07:05:09.998Z,14.36
2017-05-01T07:07:39.173Z,13.72
2017-05-01T07:10:08.599Z,14.92
2017-05-01T07:12:37.783Z,15.40
2017-05-01T07:15:06.956Z,13.92
2017-05-01T07:17:36.170Z,15.92
2017-05-01T07:20:05.350Z,15.74
2017-05-01T07:22:34.529Z,15.56
2017-05-01T07:25:03.727Z,14.42
2017-05-01T07:27:32.905Z,14.86
2017-05-01T07:30:02.073Z,15.42
2017-05-01T07:32:31.274Z,14.52
2017-05-01T07:35:00.454Z,13.78
2017-05-01T07:37:29.624Z,15.26
2017-05-01T07:39:58.845Z,14.50
2017-05-01T07:42:28.767Z,15.10
2017-05-01T07:44:57.952Z,14.10
2017-05-01T07:47:27.898Z,14.56
2017-05-01T07:49:57.075Z,15.58
2017-05-01T07:52:26.257Z,17.42
2017-05-01T07:54:55.479Z,14.70
2017-05-01T07:57:24.652Z,14.78
2017-05-01T07:59:54.606Z,14.72
2017-05-01T08:02:23.803Z,15.38
2017-05-01T08:04:52.982Z,15.24
2017-05-01T08:07:22.933Z,16.20
2017-05-01T08:09:52.110Z,16.14
2017-05-01T08:12:21.309Z,17.20
2017-05-01T08:14:51.198Z,17.02
2017-05-01T08:17:21.117Z,16.82
2017-05-01T08:19:51.893Z,15.48
2017-05-01T08:22:21.074Z,15.54
2017-05-01T08:24:50.252Z,16.94
2017-05-01T08:27:20.193Z,16.66
2017-05-01T08:29:49.362Z,17.16
2017-05-01T08:32:19.289Z,15.00
2017-05-01T08:34:49.225Z,16.40
2017-05-01T08:37:18.392Z,15.98
2017-05-01T08:39:47.556Z,16.98
2017-05-01T08:42:16.777Z,17.32
2017-05-01T08:44:45.970Z,18.10
2017-05-01T08:47:15.461Z,16.28
2017-05-01T08:49:44.662Z,17.38
2017-05-01T08:52:13.833Z,16.90
2017-05-01T08:54:43.001Z,17.48
2017-05-01T08:57:12.946Z,17.90
2017-05-01T08:59:42.120Z,16.84
2017-05-01T09:02:12.049Z,16.80
2017-05-01T09:04:41.321Z,18.42
2017-05-01T09:07:11.242Z,18.02
2017-05-01T09:09:41.185Z,17.78
2017-05-01T09:12:10.353Z,18.22
2017-05-01T09:14:40.280Z,18.44
2017-05-01T09:17:10.237Z,18.22
2017-05-01T09:19:39.408Z,17.40
2017-05-01T09:22:08.581Z,17.40
2017-05-01T09:24:37.780Z,18.60
2017-05-01T09:27:06.949Z,17.64
2017-05-01T09:29:36.326Z,18.40
2017-05-01T09:32:05.533Z,17.90
2017-05-01T09:34:34.709Z,17.02
2017-05-01T09:37:03.882Z,17.46
2017-05-01T09:39:33.824Z,17.10
2017-05-01T09:42:02.993Z,17.02
2017-05-01T09:44:32.912Z,18.12
2017-05-01T09:47:02.853Z,17.78
2017-05-01T09:49:32.028Z,16.88
2017-05-01T09:52:01.958Z,18.32
2017-05-01T09:54:31.175Z,17.52
2017-05-01T09:57:00.349Z,18.28
2017-05-01T09:59:30.277Z,19.30
2017-05-01T10:01:59.480Z,18.12
2017-05-01T10:04:28.659Z,19.38
2017-05-01T10:06:58.594Z,19.90
2017-05-01T10:09:27.801Z,19.00
2017-05-01T10:11:56.973Z,17.64
2017-05-01T10:14:26.917Z,19.30
2017-05-01T10:16:55.748Z,20.12
2017-05-01T10:19:24.917Z,18.10
2017-05-01T10:21:54.129Z,19.20
2017-05-01T10:24:23.310Z,19.50
2017-05-01T10:26:53.954Z,19.26
2017-05-01T10:29:23.130Z,19.34
2017-05-01T10:31:52.293Z,19.50
2017-05-01T10:34:21.498Z,18.90
2017-05-01T10:36:51.419Z,20.02
2017-05-01T10:39:21.361Z,18.66
2017-05-01T10:41:50.532Z,19.08
2017-05-01T10:44:20.458Z,18.30
2017-05-01T10:46:50.380Z,19.24
2017-05-01T10:49:19.558Z,19.20
2017-05-01T10:51:48.732Z,19.40
2017-05-01T10:54:17.946Z,18.12
2017-05-01T10:56:47.137Z,18.84
2017-05-01T10:59:16.309Z,19.76
2017-05-01T11:01:45.514Z,19.88
2017-05-01T11:04:14.690Z,19.96
2017-05-01T11:06:43.862Z,20.94
2017-05-01T11:09:13.805Z,20.18
2017-05-01T11:11:42.972Z,19.12
2017-05-01T11:14:12.918Z,20.50
2017-05-01T11:16:42.093Z,20.04
2017-05-01T11:19:12.026Z,19.98
2017-05-01T11:21:41.229Z,21.04
2017-05-01T11:24:10.666Z,19.46
2017-05-01T11:26:39.841Z,20.58
2017-05-01T11:29:09.373Z,20.04
2017-05-01T11:31:38.553Z,20.44
2017-05-01T11:34:07.724Z,19.06
2017-05-01T11:36:36.925Z,20.86
2017-05-01T11:39:06.380Z,20.86
2017-05-01T11:41:35.548Z,19.88
2017-05-01T11:44:04.573Z,20.32
2017-05-01T11:46:33.749Z,19.98
2017-05-01T11:49:02.924Z,21.14
2017-05-01T11:51:32.134Z,20.76
2017-05-01T11:54:01.305Z,19.02
2017-05-01T11:56:31.237Z,19.74
2017-05-01T11:59:00.440Z,20.38
2017-05-01T12:01:29.618Z,22.30
2017-05-01T12:03:59.553Z,20.54
2017-05-01T12:06:28.753Z,19.36
2017-05-01T12:08:57.921Z,20.12
2017-05-01T12:11:27.844Z,19.92
2017-05-01T12:13:57.801Z,19.94
2017-05-01T12:16:26.976Z,21.74
2017-05-01T12:18:56.159Z,19.64
2017-05-01T12:21:26.107Z,18.68
2017-05-01T12:23:55.285Z,19.54
2017-05-01T12:26:25.167Z,20.34
2017-05-01T12:28:54.377Z,18.60
2017-05-01T12:31:23.548Z,20.12
2017-05-01T12:33:52.722Z,18.86
2017-05-01T12:36:21.931Z,20.40
2017-05-01T12:38:51.120Z,19.34
2017-05-01T12:41:20.292Z,20.54
2017-05-01T12:43:49.500Z,21.88
2017-05-01T12:46:18.678Z,19.62
2017-05-01T12:48:48.604Z,21.32
2017-05-01T12:51:18.548Z,21.78
2017-05-01T12:53:47.721Z,20.44
2017-05-01T12:56:16.901Z,21.10
2017-05-01T12:58:47.070Z,20.34
2017-05-01T13:01:16.249Z,20.14
2017-05-01T13:03:45.429Z,20.10
2017-05-01T13:06:15.381Z,19.96
2017-05-01T13:08:44.552Z,22.38
2017-05-01T13:11:14.473Z,21.18
2017-05-01T13:13:43.686Z,20.10
2017-05-01T13:16:12.869Z,21.10
2017-05-01T13:18:42.044Z,21.10
2017-05-01T13:21:11.250Z,20.98
2017-05-01T13:23:41.156Z,20.78
2017-05-01T13:26:10.351Z,20.26
2017-05-01T13:28:39.562Z,18.74
2017-05-01T13:31:09.477Z,21.74
2017-05-01T13:33:39.427Z,21.36
2017-05-01T13:36:08.610Z,21.80
2017-05-01T13:38:37.794Z,19.52
2017-05-01T13:41:07.742Z,20.12
2017-05-01T13:43:36.737Z,21.46
2017-05-01T13:46:05.916Z,21.66
2017-05-01T13:48:35.121Z,22.20
2017-05-01T13:51:04.368Z,21.02
2017-05-01T13:53:33.554Z,20.84
2017-05-01T13:56:02.754Z,21.76
2017-05-01T13:58:31.937Z,21.06
2017-05-01T14:01:01.122Z,20.60
2017-05-01T14:03:30.334Z,20.36
2017-05-01T14:05:59.509Z,20.72
2017-05-01T14:08:29.434Z,21.38
2017-05-01T14:10:58.638Z,20.60
2017-05-01T14:13:27.810Z,20.26
2017-05-01T14:15:57.755Z,20.60
2017-05-01T14:18:26.967Z,20.68
2017-05-01T14:20:56.141Z,20.82
2017-05-01T14:23:25.319Z,21.40
2017-05-01T14:25:55.261Z,20.20
2017-05-01T14:28:24.438Z,19.60
2017-05-01T14:30:54.369Z,21.58
2017-05-01T14:33:23.573Z,22.72
2017-05-01T14:35:52.740Z,21.78
2017-05-01T14:38:21.910Z,20.54
2017-05-01T14:40:51.114Z,21.86
2017-05-01T14:43:20.294Z,19.62
2017-05-01T14:45:49.478Z,20.84
2017-05-01T14:48:18.913Z,19.58
2017-05-01T14:50:48.089Z,19.58
2017-05-01T14:53:17.266Z,21.30
2017-05-01T14:55:46.477Z,20.68
2017-05-01T14:58:15.645Z,20.06
2017-05-01T15:00:45.573Z,26.32
2017-05-01T15:03:14.437Z,21.28
2017-05-01T15:05:43.268Z,20.64
2017-05-01T15:08:12.441Z,19.44
2017-05-01T15:10:42.380Z,21.02
2017-05-01T15:13:11.553Z,21.04
2017-05-01T15:15:41.476Z,21.08
2017-05-01T15:18:11.418Z,20.76
2017-05-01T15:20:40.869Z,19.32
2017-05-01T15:23:10.039Z,20.10
2017-05-01T15:25:39.553Z,18.38
2017-05-01T15:28:08.387Z,21.22
2017-05-01T15:30:38.316Z,20.24
2017-05-01T15:33:08.265Z,19.66
2017-05-01T15:35:37.446Z,20.70
2017-05-01T15:38:06.613Z,20.32
2017-05-01T15:40:36.569Z,19.96
2017-05-01T15:43:05.750Z,20.62
2017-05-01T15:45:34.926Z,19.86
2017-05-01T15:48:03.588Z,19.30
2017-05-01T15:50:32.768Z,19.10
2017-05-01T15:53:02.015Z,19.54
2017-05-01T15:55:31.988Z,18.18
2017-05-01T15:58:01.156Z,19.92
2017-05-01T16:00:30.324Z,19.76
2017-05-01T16:02:59.591Z,18.82
2017-05-01T16:05:28.761Z,17.70
2017-05-01T16:07:57.946Z,17.32
2017-05-01T16:10:27.159Z,18.10
2017-05-01T16:12:56.334Z,20.50
2017-05-01T16:15:26.265Z,19.48
2017-05-01T16:17:55.473Z,19.08
2017-05-01T16:20:24.650Z,20.20
2017-05-01T16:22:54.572Z,19.84
2017-05-01T16:25:23.773Z,18.14
2017-05-01T16:27:52.944Z,19.20
2017-05-01T16:30:22.118Z,19.78
2017-05-01T16:32:51.326Z,18.24
2017-05-01T16:35:20.496Z,18.36
2017-05-01T16:37:49.678Z,18.40
2017-05-01T16:40:18.196Z,17.70
2017-05-01T16:42:47.368Z,17.92
2017-05-01T16:45:16.546Z,17.56
2017-05-01T16:47:45.749Z,18.32
2017-05-01T16:50:14.925Z,18.72
2017-05-01T16:52:44.866Z,17.56
2017-05-01T16:55:14.032Z,17.32
2017-05-01T16:57:43.205Z,17.78
2017-05-01T17:00:12.409Z,17.66
2017-05-01T17:02:41.577Z,18.42
2017-05-01T17:05:10.753Z,18.58
2017-05-01T17:07:39.952Z,18.48
2017-05-01T17:10:09.125Z,16.64
2017-05-01T17:12:39.095Z,18.06
2017-05-01T17:15:08.302Z,17.72
2017-05-01T17:17:37.473Z,18.68
2017-05-01T17:20:06.650Z,18.84
2017-05-01T17:22:36.597Z,18.46
2017-05-01T17:25:05.764Z,22.60
2017-05-01T17:27:36.758Z,23.28
2017-05-01T17:30:05.928Z,22.88
2017-05-01T17:32:35.093Z,29.56
2017-05-01T17:35:05.053Z,27.60
2017-05-01T17:37:34.231Z,22.06
2017-05-01T17:40:03.405Z,21.66
2017-05-01T17:42:33.344Z,20.92
2017-05-01T17:45:02.512Z,21.84
2017-05-01T17:47:31.685Z,19.42
2017-05-01T17:50:00.892Z,19.86
2017-05-01T17:52:30.061Z,19.72
2017-05-01T17:54:59.234Z,19.70
2017-05-01T17:57:28.437Z,20.32
2017-05-01T17:59:57.779Z,15.96
2017-05-01T18:02:26.969Z,17.80
2017-05-01T18:04:56.235Z,16.38
2017-05-01T18:07:26.093Z,18.24
2017-05-01T18:09:55.286Z,15.82
2017-05-01T18:12:24.499Z,17.42
2017-05-01T18:14:53.685Z,16.46
2017-05-01T18:17:22.860Z,16.76
2017-05-01T18:19:52.072Z,15.54
2017-05-01T18:22:21.258Z,16.60
2017-05-01T18:24:50.433Z,18.50
2017-05-01T18:27:20.385Z,18.22
2017-05-01T18:29:49.561Z,18.94
2017-05-01T18:32:19.984Z,17.80
2017-05-01T18:34:49.189Z,19.44
2017-05-01T18:37:18.366Z,17.24
2017-05-01T18:39:48.304Z,18.72
2017-05-01T18:42:17.498Z,18.30
2017-05-01T18:44:46.672Z,19.10
2017-05-01T18:47:16.404Z,18.78
2017-05-01T18:49:45.616Z,17.06
2017-05-01T18:52:14.794Z,15.32
2017-05-01T18:54:44.726Z,12.66
2017-05-01T18:57:13.938Z,12.70
2017-05-01T18:59:43.122Z,11.38
2017-05-01T19:02:12.306Z,11.30
2017-05-01T19:04:42.257Z,11.08
2017-05-01T19:07:11.548Z,11.10
2017-05-01T19:09:40.733Z,9.80
2017-05-01T19:12:10.872Z,10.58
2017-05-01T19:14:40.107Z,10.82
2017-05-01T19:17:09.309Z,11.06
2017-05-01T19:19:38.560Z,10.20
2017-05-01T19:22:08.294Z,10.00
2017-05-01T19:24:37.470Z,9.26
2017-05-01T19:27:06.685Z,8.84
2017-05-01T19:29:35.856Z,9.02
2017-05-01T19:32:05.062Z,10.04
2017-05-01T19:34:34.280Z,9.24
2017-05-01T19:37:03.471Z,9.02
2017-05-01T19:39:32.877Z,8.62
2017-05-01T19:42:02.086Z,9.38
2017-05-01T19:44:31.485Z,8.70
2017-05-01T19:47:00.660Z,8.06
2017-05-01T19:49:29.881Z,8.90
2017-05-01T19:51:59.166Z,7.26
2017-05-01T19:54:28.340Z,7.82
2017-05-01T19:56:58.286Z,8.60
2017-05-01T19:59:27.464Z,8.50
2017-05-01T20:01:57.648Z,7.30
2017-05-01T20:04:26.863Z,7.08
2017-05-01T20:06:56.028Z,7.64
2017-05-01T20:09:25.193Z,6.90
2017-05-01T20:11:54.388Z,6.50
2017-05-01T20:14:24.362Z,6.20
2017-05-01T20:16:53.578Z,6.62
2017-05-01T20:19:22.788Z,6.26
2017-05-01T20:21:52.701Z,6.96
2017-05-01T20:24:21.906Z,6.18
2017-05-01T20:26:51.821Z,6.32
2017-05-01T20:29:21.746Z,6.10
2017-05-01T20:31:51.681Z,5.72
2017-05-01T20:34:20.653Z,5.40
2017-05-01T20:36:50.562Z,5.82
2017-05-01T20:39:20.497Z,5.70
2017-05-01T20:41:49.669Z,6.48
2017-05-01T20:44:18.837Z,6.14
2017-05-01T20:46:48.037Z,6.38
2017-05-01T20:49:17.205Z,6.30
2017-05-01T20:51:46.369Z,6.28
2017-05-01T20:54:16.311Z,5.72
2017-05-01T20:56:45.486Z,6.20
2017-05-01T20:59:15.416Z,5.88
2017-05-01T21:01:45.371Z,6.46
2017-05-01T21:04:14.542Z,5.14
2017-05-01T21:06:43.716Z,5.56
2017-05-01T21:09:13.658Z,5.16
2017-05-01T21:11:42.821Z,5.00
2017-05-01T21:14:12.017Z,6.34
2017-05-01T21:16:41.453Z,6.28
2017-05-01T21:19:10.620Z,6.24
2017-05-01T21:21:40.734Z,7.12
2017-05-01T21:24:10.520Z,5.70
2017-05-01T21:26:39.696Z,6.44
2017-05-01T21:29:08.965Z,5.98
2017-05-01T21:31:39.003Z,6.52
2017-05-01T21:34:09.045Z,6.38
2017-05-01T21:36:38.245Z,6.60
2017-05-01T21:39:07.410Z,7.44
2017-05-01T21:41:37.386Z,7.02
2017-05-01T21:44:06.594Z,6.14
2017-05-01T21:46:35.765Z,6.30
2017-05-01T21:49:04.939Z,6.90
2017-05-01T21:51:34.263Z,6.48
2017-05-01T21:54:03.436Z,7.74
2017-05-01T21:56:32.876Z,7.48
2017-05-01T21:59:02.073Z,8.02
2017-05-01T22:01:31.237Z,7.74
2017-05-01T22:04:00.410Z,7.10
2017-05-01T22:06:30.348Z,7.32
2017-05-01T22:08:59.795Z,7.68
2017-05-01T22:11:28.956Z,7.80
2017-05-01T22:13:58.161Z,8.50
2017-05-01T22:16:27.320Z,8.16
2017-05-01T22:18:56.484Z,8.12
2017-05-01T22:21:25.669Z,7.40
2017-05-01T22:23:54.830Z,7.54
2017-05-01T22:26:24.750Z,7.02
2017-05-01T22:28:54.718Z,8.70
2017-05-01T22:31:23.937Z,8.64
2017-05-01T22:33:53.112Z,8.58
2017-05-01T22:36:22.418Z,9.08
2017-05-01T22:38:51.584Z,9.80
2017-05-01T22:41:20.771Z,9.78
2017-05-01T22:43:49.981Z,9.60
2017-05-01T22:46:19.145Z,8.74
2017-05-01T22:48:48.313Z,8.74
2017-05-01T22:51:17.524Z,9.22
2017-05-01T22:53:46.702Z,10.02
2017-05-01T22:56:15.869Z,8.94
2017-05-01T22:58:45.064Z,8.68
2017-05-01T23:01:14.233Z,8.94
2017-05-01T23:03:43.406Z,9.32
2017-05-01T23:06:12.609Z,8.88
2017-05-01T23:08:41.782Z,9.38
2017-05-01T23:11:10.948Z,8.76
2017-05-01T23:13:40.885Z,9.24
2017-05-01T23:16:10.061Z,9.04
2017-05-01T23:18:39.981Z,8.52
2017-05-01T23:21:10.153Z,9.28
2017-05-01T23:23:39.322Z,8.70
2017-05-01T23:26:08.708Z,7.76
2017-05-01T23:28:37.893Z,9.20
2017-05-01T23:31:07.796Z,9.06
2017-05-01T23:33:36.988Z,9.26
2017-05-01T23:36:06.192Z,8.00
2017-05-01T23:38:35.357Z,9.54
2017-05-01T23:41:04.530Z,8.70
2017-05-01T23:43:33.733Z,8.56
2017-05-01T23:46:02.914Z,8.96
2017-05-01T23:48:32.081Z,8.26
2017-05-01T23:51:01.269Z,9.34
2017-05-01T23:53:30.446Z,8.62
2017-05-01T23:55:59.624Z,9.24
2017-05-01T23:58:28.833Z,10.20
